Time;durP1;ratioP1;P1;durP2;ratioP2;P2;SDS_P1;SDS_P2;PMS_P1;PMS_P2;Temp;Humidity;BMP_temperature;BMP_pressure;BME280_temperature;BME280_humidity;BME280_pressure;Samples;Min_cycle;Max_cycle;Signal;HPM_P1;HPM_P2
2022/01/16 00:07:29;;;;;;;0.20;0.10;;;7.00;99.90;;;;;;25580469;23;20285;-71
2022/01/16 00:17:41;;;;;;;0.20;0.20;;;6.80;99.90;;;;;;25580971;23;20244;-69
2022/01/16 00:27:45;;;;;;;0.40;0.40;;;6.70;99.90;;;;;;25578590;23;20173;-69
2022/01/16 00:37:52;;;;;;;0.20;0.20;;;6.90;99.90;;;;;;25578452;23;20221;-70
2022/01/16 00:47:56;;;;;;;0.20;0.10;;;6.80;99.90;;;;;;25579524;23;20257;-70
2022/01/16 00:58:01;;;;;;;2.17;2.07;;;7.00;99.90;;;;;;25577536;23;20206;-71
2022/01/16 01:08:07;;;;;;;1.20;1.20;;;6.70;99.90;;;;;;25578310;23;20218;-72
2022/01/16 01:18:13;;;;;;;0.20;0.10;;;6.50;99.90;;;;;;25578989;23;20696;-70
2022/01/16 01:28:17;;;;;;;0.20;0.03;;;6.50;99.90;;;;;;25573835;23;20712;-70
2022/01/16 01:38:22;;;;;;;0.20;0.10;;;6.40;99.90;;;;;;25576409;23;20215;-68
2022/01/16 01:58:50;;;;;;;0.40;0.40;;;6.50;99.90;;;;;;25576970;23;20639;-67
2022/01/16 02:08:55;;;;;;;0.20;0.10;;;6.50;99.90;;;;;;25575975;23;20297;-68
2022/01/16 02:29:58;;;;;;;0.20;0.10;;;6.50;99.90;;;;;;25582861;23;20229;-69
2022/01/16 02:40:04;;;;;;;0.20;0.00;;;6.40;99.90;;;;;;25588977;23;20182;-75
2022/01/16 02:50:10;;;;;;;0.20;0.10;;;6.00;99.90;;;;;;25588655;23;20200;-67
2022/01/16 03:00:14;;;;;;;0.20;0.10;;;5.70;99.90;;;;;;25589496;23;20228;-67
2022/01/16 03:31:14;;;;;;;0.20;0.10;;;5.90;99.90;;;;;;25588334;23;20273;-76
2022/01/16 03:41:18;;;;;;;0.20;0.10;;;5.50;99.90;;;;;;25587675;23;20166;-77
2022/01/16 03:51:23;;;;;;;0.20;0.10;;;5.30;99.90;;;;;;25587132;23;20268;-78
2022/01/16 04:01:27;;;;;;;0.20;0.10;;;5.30;99.90;;;;;;25584770;23;20284;-78
2022/01/16 04:11:33;;;;;;;0.20;0.10;;;5.50;99.90;;;;;;25587732;23;20194;-77
2022/01/16 04:21:36;;;;;;;0.20;0.17;;;5.70;99.90;;;;;;25587308;23;20249;-67
2022/01/16 04:31:41;;;;;;;0.47;0.30;;;5.60;99.90;;;;;;25584413;23;20213;-68
2022/01/16 04:52:09;;;;;;;0.93;0.87;;;5.00;99.90;;;;;;25585114;23;20559;-68
2022/01/16 05:02:12;;;;;;;0.20;0.20;;;4.70;99.90;;;;;;25582377;23;20212;-67
2022/01/16 05:12:26;;;;;;;0.50;0.30;;;4.60;99.90;;;;;;25584399;23;20273;-68
2022/01/16 05:22:30;;;;;;;0.30;0.30;;;4.90;99.90;;;;;;25582272;23;20174;-68
2022/01/16 05:32:35;;;;;;;0.20;0.10;;;4.90;99.90;;;;;;25581965;23;20189;-67
2022/01/16 05:42:43;;;;;;;0.20;0.10;;;5.00;99.90;;;;;;25584308;23;20530;-66
2022/01/16 05:52:48;;;;;;;68.00;61.57;;;5.20;99.90;;;;;;25583192;23;20668;-65
2022/01/16 06:02:52;;;;;;;0.20;0.10;;;5.00;99.90;;;;;;25579857;23;20374;-74
2022/01/16 06:12:57;;;;;;;0.20;0.10;;;5.40;99.90;;;;;;25589783;23;20214;-74
2022/01/16 06:23:01;;;;;;;0.20;0.10;;;5.50;99.90;;;;;;25588659;23;20178;-75
2022/01/16 06:33:09;;;;;;;0.20;0.10;;;5.40;99.90;;;;;;25588921;23;20194;-66
2022/01/16 06:43:13;;;;;;;0.20;0.10;;;5.30;99.90;;;;;;25588193;23;20205;-66
2022/01/16 06:53:18;;;;;;;0.20;0.10;;;5.40;99.90;;;;;;25587417;23;20267;-65
2022/01/16 07:03:22;;;;;;;0.20;0.10;;;5.50;99.90;;;;;;25587315;23;20369;-66
2022/01/16 07:13:29;;;;;;;1.27;1.17;;;5.30;99.90;;;;;;25588374;23;20727;-66
2022/01/16 07:23:35;;;;;;;0.20;0.10;;;5.20;99.90;;;;;;25586607;23;20245;-67
2022/01/16 07:33:40;;;;;;;0.20;0.10;;;4.90;99.90;;;;;;25584697;23;20280;-67
2022/01/16 07:43:44;;;;;;;0.20;0.10;;;4.80;99.90;;;;;;25587128;23;20193;-65
2022/01/16 07:53:49;;;;;;;0.20;0.10;;;5.20;99.90;;;;;;25583992;23;20182;-65
2022/01/16 08:03:53;;;;;;;0.20;0.10;;;5.60;99.90;;;;;;25586463;23;20206;-66
2022/01/16 08:13:58;;;;;;;0.20;0.10;;;5.80;99.90;;;;;;25585118;23;20273;-65
2022/01/16 08:24:04;;;;;;;0.20;0.10;;;6.20;99.90;;;;;;25584273;23;20166;-67
2022/01/16 08:34:09;;;;;;;0.20;0.10;;;6.50;99.90;;;;;;25581095;23;20244;-67
2022/01/16 08:44:13;;;;;;;0.20;0.10;;;6.80;99.90;;;;;;25582146;23;20589;-65
2022/01/16 08:54:18;;;;;;;1.07;0.60;;;7.10;99.90;;;;;;25582729;23;20634;-66
2022/01/16 09:04:22;;;;;;;0.20;0.00;;;7.40;99.90;;;;;;25583795;23;20598;-74
2022/01/16 09:14:27;;;;;;;0.20;0.10;;;7.70;99.90;;;;;;25585349;23;20523;-76
2022/01/16 09:24:31;;;;;;;0.20;0.10;;;8.00;99.90;;;;;;25584453;23;20245;-74
2022/01/16 09:34:37;;;;;;;0.20;0.10;;;8.20;99.90;;;;;;25582748;23;20225;-75
2022/01/16 09:44:41;;;;;;;0.20;0.10;;;8.70;99.90;;;;;;25587962;23;20252;-77
2022/01/16 09:54:47;;;;;;;0.20;0.10;;;9.00;99.90;;;;;;25592207;23;20635;-74
2022/01/16 10:04:53;;;;;;;0.20;0.10;;;9.60;99.90;;;;;;25590881;23;20281;-76
2022/01/16 10:14:58;;;;;;;9.73;2.10;;;10.00;99.90;;;;;;25590426;23;20837;-72
2022/01/16 10:25:04;;;;;;;0.20;0.10;;;10.50;99.90;;;;;;25591040;23;20241;-75
2022/01/16 10:35:17;;;;;;;0.20;0.10;;;11.20;99.90;;;;;;25586208;23;20188;-74
2022/01/16 10:45:25;;;;;;;0.20;0.10;;;11.80;99.90;;;;;;25589766;23;20189;-81
2022/01/16 10:55:40;;;;;;;0.93;0.93;;;13.20;99.90;;;;;;25592422;23;20186;-86
2022/01/16 11:05:46;;;;;;;0.20;0.10;;;13.90;99.90;;;;;;25618588;23;20284;-86
2022/01/16 11:15:54;;;;;;;0.20;0.10;;;14.60;99.90;;;;;;25594255;23;20494;-79
2022/01/16 11:26:00;;;;;;;0.60;0.60;;;14.70;99.90;;;;;;25594111;23;20205;-84
2022/01/16 11:36:08;;;;;;;0.20;0.20;;;15.30;99.90;;;;;;25594823;23;20194;-76
2022/01/16 11:46:17;;;;;;;0.20;0.10;;;15.60;99.90;;;;;;25596119;23;20166;-83
2022/01/16 11:56:57;;;;;;;0.63;0.63;;;15.80;99.90;;;;;;25592126;23;20232;-82
2022/01/16 12:07:03;;;;;;;0.20;0.10;;;15.80;99.90;;;;;;25594485;23;20225;-83
2022/01/16 12:17:26;;;;;;;0.20;0.10;;;16.50;99.90;;;;;;25592280;23;20496;-80
2022/01/16 12:27:47;;;;;;;0.87;0.87;;;16.80;99.90;;;;;;25588664;23;20522;-82
2022/01/16 12:37:56;;;;;;;0.20;0.00;;;16.80;99.90;;;;;;25578931;23;20293;-82
2022/01/16 12:48:00;;;;;;;2.23;2.13;;;17.30;99.90;;;;;;25603459;23;20178;-83
2022/01/16 12:58:19;;;;;;;0.20;0.10;;;17.90;99.90;;;;;;25587693;23;20198;-68
2022/01/16 13:08:23;;;;;;;0.20;0.10;;;18.00;99.90;;;;;;25578015;23;20276;-66
2022/01/16 13:18:28;;;;;;;0.20;0.10;;;18.10;99.90;;;;;;25582171;23;20213;-66
2022/01/16 13:28:33;;;;;;;0.20;0.10;;;18.40;99.90;;;;;;25581971;23;20673;-67
2022/01/16 13:38:38;;;;;;;0.20;0.20;;;18.10;99.90;;;;;;25582348;23;20220;-70
2022/01/16 13:48:42;;;;;;;0.57;0.57;;;17.80;99.90;;;;;;25582371;23;20222;-68
2022/01/16 13:58:49;;;;;;;0.30;0.27;;;17.60;99.90;;;;;;25579732;23;20301;-70
2022/01/16 14:08:54;;;;;;;0.43;0.43;;;18.10;99.90;;;;;;25582062;23;20641;-71
2022/01/16 14:19:09;;;;;;;0.40;0.40;;;18.10;99.90;;;;;;25579811;23;20190;-69
2022/01/16 14:29:15;;;;;;;0.20;0.10;;;19.00;99.90;;;;;;25583045;23;20300;-70
2022/01/16 14:39:23;;;;;;;1.07;1.07;;;18.90;99.90;;;;;;25579205;23;20207;-69
2022/01/16 14:49:27;;;;;;;1.90;1.03;;;19.50;99.90;;;;;;25582585;23;20225;-65
2022/01/16 14:59:33;;;;;;;0.53;0.53;;;19.30;99.90;;;;;;25581247;23;20230;-65
2022/01/16 15:09:38;;;;;;;0.20;0.10;;;18.10;99.90;;;;;;25580859;23;20545;-69
2022/01/16 15:19:44;;;;;;;6.83;4.53;;;17.40;99.90;;;;;;25579531;23;20205;-69
2022/01/16 15:29:50;;;;;;;0.20;0.20;;;18.00;99.90;;;;;;25579495;23;20365;-69
2022/01/16 15:39:55;;;;;;;0.20;0.00;;;18.30;99.90;;;;;;25576751;23;20204;-70
2022/01/16 15:49:59;;;;;;;0.20;0.00;;;18.70;99.90;;;;;;25579801;23;20623;-71
2022/01/16 16:00:07;;;;;;;0.20;0.10;;;17.50;99.90;;;;;;25579745;23;20202;-69
2022/01/16 16:10:14;;;;;;;0.20;0.03;;;16.50;99.90;;;;;;25580578;23;20273;-69
2022/01/16 16:20:21;;;;;;;0.20;0.10;;;15.00;99.90;;;;;;25580270;23;20268;-69
2022/01/16 16:30:27;;;;;;;0.20;0.10;;;12.90;99.90;;;;;;25581057;23;20249;-69
2022/01/16 16:40:32;;;;;;;4.37;3.97;;;11.10;99.90;;;;;;25568727;23;20190;-68
2022/01/16 16:50:36;;;;;;;0.20;0.10;;;10.40;99.90;;;;;;25561704;23;20265;-67
2022/01/16 17:00:41;;;;;;;0.20;0.00;;;9.80;99.90;;;;;;25568221;23;20216;-76
2022/01/16 17:10:45;;;;;;;0.20;0.07;;;9.30;99.90;;;;;;25570045;23;20256;-75
2022/01/16 17:20:51;;;;;;;0.20;0.10;;;8.60;99.90;;;;;;25578770;23;20670;-75
2022/01/16 17:30:55;;;;;;;0.87;0.87;;;8.10;99.90;;;;;;25580366;23;20178;-77
2022/01/16 17:41:01;;;;;;;0.40;0.40;;;7.70;99.90;;;;;;25577420;23;20241;-75
2022/01/16 17:51:05;;;;;;;0.20;0.10;;;7.60;99.90;;;;;;25579940;23;20167;-76
2022/01/16 18:01:10;;;;;;;0.50;0.47;;;7.70;99.90;;;;;;25585093;23;20210;-76
2022/01/16 18:11:15;;;;;;;0.20;0.10;;;7.00;99.90;;;;;;25604220;23;20177;-77
2022/01/16 18:21:20;;;;;;;0.20;0.00;;;6.80;99.90;;;;;;25634316;23;20205;-76
2022/01/16 18:31:24;;;;;;;0.23;0.17;;;6.70;99.90;;;;;;25592404;23;20249;-78
2022/01/16 18:41:29;;;;;;;0.20;0.10;;;6.60;99.90;;;;;;25590537;23;20209;-77
2022/01/16 18:51:34;;;;;;;0.20;0.20;;;6.60;99.90;;;;;;25593081;23;20328;-76
2022/01/16 19:01:39;;;;;;;0.20;0.10;;;6.50;99.90;;;;;;25600377;23;20213;-78
2022/01/16 19:11:43;;;;;;;0.20;0.07;;;6.40;99.90;;;;;;25584527;23;20185;-77
2022/01/16 19:21:48;;;;;;;0.20;0.10;;;6.00;99.90;;;;;;25585624;23;20189;-77
2022/01/16 19:31:53;;;;;;;0.20;0.00;;;6.00;99.90;;;;;;25590399;23;20289;-76
2022/01/16 19:42:03;;;;;;;0.20;0.10;;;6.40;99.90;;;;;;25585328;23;20170;-76
2022/01/16 19:52:09;;;;;;;0.20;0.10;;;6.30;99.90;;;;;;25584137;23;20253;-74
2022/01/16 20:02:14;;;;;;;0.20;0.10;;;6.30;99.90;;;;;;25582196;23;20240;-67
2022/01/16 20:12:18;;;;;;;0.73;0.73;;;7.20;99.90;;;;;;25579599;23;20197;-67
2022/01/16 20:22:24;;;;;;;0.20;0.00;;;7.90;99.90;;;;;;25583354;23;20177;-65
2022/01/16 20:32:33;;;;;;;0.20;0.00;;;7.90;99.90;;;;;;25582540;23;20202;-66
2022/01/16 20:42:38;;;;;;;0.20;0.10;;;8.00;99.90;;;;;;25580404;23;20210;-66
2022/01/16 20:52:43;;;;;;;0.20;0.10;;;7.70;99.90;;;;;;25582219;23;20197;-68
2022/01/16 21:02:48;;;;;;;0.20;0.03;;;7.30;99.90;;;;;;25580516;23;20228;-66
2022/01/16 21:12:53;;;;;;;0.20;0.00;;;6.70;99.90;;;;;;25579569;23;20269;-66
2022/01/16 21:22:59;;;;;;;0.20;0.10;;;7.40;99.90;;;;;;25579359;23;20253;-65
2022/01/16 21:33:02;;;;;;;0.20;0.10;;;7.50;99.90;;;;;;25579989;23;20297;-68
2022/01/16 21:43:08;;;;;;;0.20;0.10;;;7.30;99.90;;;;;;25588518;23;20174;-68
2022/01/16 21:53:15;;;;;;;3.43;3.23;;;7.20;99.90;;;;;;25586162;23;20174;-67
2022/01/16 22:03:21;;;;;;;3.33;3.20;;;7.00;99.90;;;;;;25584199;23;20268;-68
2022/01/16 22:13:28;;;;;;;0.20;0.10;;;7.40;99.90;;;;;;25587319;23;20252;-70
2022/01/16 22:23:37;;;;;;;0.20;0.10;;;7.40;99.90;;;;;;25586596;23;20715;-68
2022/01/16 22:33:44;;;;;;;0.20;0.03;;;7.40;99.90;;;;;;25586372;23;20543;-67
2022/01/16 22:43:49;;;;;;;0.20;0.10;;;7.40;99.90;;;;;;25586891;23;20201;-67
2022/01/16 22:54:13;;;;;;;0.20;0.10;;;7.30;99.90;;;;;;25583549;23;20198;-68
2022/01/16 23:04:18;;;;;;;0.20;0.20;;;7.10;99.90;;;;;;25584602;23;20583;-67
2022/01/16 23:14:22;;;;;;;0.67;0.67;;;7.20;99.90;;;;;;25584591;23;20632;-68
2022/01/16 23:24:27;;;;;;;0.20;0.10;;;7.40;99.90;;;;;;25584731;23;20249;-68
2022/01/16 23:34:31;;;;;;;0.20;0.10;;;7.60;99.90;;;;;;25582825;23;20190;-66
2022/01/16 23:44:36;;;;;;;0.20;0.10;;;7.40;99.90;;;;;;25584243;23;20256;-69
2022/01/16 23:54:40;;;;;;;4.03;3.63;;;7.30;99.90;;;;;;25581717;23;20198;-68
